Currently 59°F in Temecula, California, USA
59°F
80°F / 56°F
7 mph S
0.00"
Monday, May 29, 2017 10:39 PM PDT

Temecula, California Weather Summary
Last 36 Hours

Temperature Winds Hourly Humidity Dewpoint
Time Report Norm Report Norm Max Gusts Precip. Rpt. Norm Rpt. Norm Pressure
1Mon 10:39 PM  59.5°F  60°F  7 mph S  2 mph  5 mph  0.00"  92%  86%  57°F  56°F  29.99"
Mon 10:00 PM  59.6°F  61°F  5 mph S  3 mph  12 mph  0.00"  91%  84%  57°F  56°F  29.98"
Mon 09:00 PM  61.2°F  62°F  2 mph S  4 mph  13 mph  0.00"  87%  80%  57°F  56°F  29.96"
Mon 08:00 PM  65.9°F  65°F  2 mph SE  5 mph  6 mph  0.00"  76%  73%  58°F  56°F  29.94"
Mon 07:00 PM  70.2°F  69°F  1 mph S  7 mph  13 mph  0.00"  68%  65%  59°F  56°F  29.91"
Mon 06:00 PM  75.2°F  72°F  5 mph S  9 mph  13 mph  0.00"  58%  57%  59°F  56°F  29.87"
Mon 05:00 PM  78.1°F  75°F  7 mph SW  10 mph  14 mph  0.00"  55%  52%  60°F  56°F  29.88"
2Mon 04:17 PM  80.4°F  77°F  3 mph SW  10 mph  9 mph  ----  50%  50%  60°F  56°F  29.88"
Mon 04:00 PM  79.4°F  77°F  4 mph SW  10 mph  13 mph  0.00"  52%  49%  59°F  56°F  29.89"
Mon 03:00 PM  75.9°F  78°F  6 mph SW  10 mph  14 mph  0.00"  58%  48%  59°F  56°F  29.92"
Mon 02:00 PM  75.9°F  78°F  4 mph W  9 mph  14 mph  0.00"  59%  49%  60°F  56°F  29.94"
Mon 01:00 PM  72.2°F  76°F  6 mph SW  8 mph  14 mph  0.00"  65%  50%  60°F  56°F  29.96"
Mon 12:00 PM  69.4°F  74°F  5 mph W  7 mph  15 mph  0.00"  70%  54%  59°F  56°F  29.98"
Mon 11:00 AM  66.0°F  70°F  5 mph SW  5 mph  16 mph  0.00"  76%  62%  58°F  57°F  29.99"
Mon 10:00 AM  62.6°F  66°F  9 mph S  3 mph  17 mph  0.00"  85%  73%  58°F  56°F  29.98"
Mon 09:00 AM  60.8°F  61°F  5 mph S  2 mph  12 mph  0.00"  91%  83%  58°F  56°F  29.98"
Mon 08:00 AM  57.1°F  58°F  2 mph E  1 mph  6 mph  0.00"  96%  90%  56°F  55°F  29.98"
Mon 07:00 AM  56.6°F  56°F  2 mph S  1 mph  4 mph  0.00"  97%  94%  56°F  54°F  29.98"
Mon 06:00 AM  56.8°F  55°F  calm  1 mph  4 mph  0.00"  96%  94%  56°F  53°F  29.99"
Mon 05:00 AM  56.5°F  56°F  calm  1 mph  3 mph  0.00"  96%  93%  55°F  54°F  29.99"
Mon 04:00 AM  56.5°F  56°F  1 mph S  1 mph  4 mph  0.00"  96%  93%  55°F  54°F  29.99"
3Mon 03:46 AM  56.2°F  56°F  calm  1 mph  3 mph  ----  96%  93%  55°F  54°F  29.99"
Mon 03:00 AM  56.5°F  57°F  calm  1 mph  6 mph  0.00"  96%  92%  55°F  54°F  29.99"
Mon 02:00 AM  56.6°F  57°F  3 mph S  1 mph  7 mph  0.00"  95%  91%  55°F  54°F  30.00"
Mon 01:00 AM  57.7°F  58°F  3 mph S  1 mph  7 mph  0.00"  94%  91%  56°F  55°F  30.02"
Mon 12:00 AM  59.0°F  58°F  calm  1 mph  4 mph  0.00"  91%  89%  56°F  55°F  30.03"
Sun 11:00 PM  59.8°F  59°F  1 mph S  2 mph  9 mph  0.00"  89%  87%  56°F  55°F  30.04"
Sun 10:00 PM  61.8°F  60°F  5 mph S  3 mph  7 mph  0.00"  84%  84%  57°F  55°F  30.03"
Sun 09:00 PM  63.8°F  62°F  4 mph SE  4 mph  9 mph  0.00"  80%  80%  57°F  55°F  30.03"
Sun 08:00 PM  67.8°F  64°F  6 mph S  5 mph  9 mph  0.00"  71%  74%  58°F  55°F  30.01"
Sun 07:00 PM  71.6°F  68°F  2 mph W  7 mph  12 mph  0.00"  63%  66%  58°F  56°F  29.99"
Sun 06:00 PM  74.4°F  72°F  7 mph SW  9 mph  13 mph  0.00"  58%  58%  58°F  56°F  29.98"
Sun 05:00 PM  77.1°F  75°F  8 mph SW  10 mph  15 mph  0.00"  54%  53%  59°F  56°F  29.98"
Sun 04:00 PM  82.6°F  76°F  6 mph S  10 mph  16 mph  0.00"  44%  50%  57°F  56°F  29.99"
Sun 03:00 PM  81.3°F  77°F  8 mph SW  10 mph  14 mph  0.00"  45%  49%  57°F  56°F  30.01"
Sun 02:00 PM  81.4°F  77°F  4 mph SW  9 mph  14 mph  0.00"  41%  49%  54°F  56°F  30.03"
Sun 01:00 PM  81.1°F  76°F  5 mph SW  8 mph  12 mph  0.00"  43%  51%  56°F  56°F  30.04"
Sun 12:00 PM  78.4°F  74°F  2 mph S  7 mph  8 mph  0.00"  45%  55%  54°F  56°F  30.05"
Sun 11:00 AM  74.0°F  70°F  calm  5 mph  7 mph  0.00"  55%  63%  56°F  56°F  30.06"

  1. Current weather data. No green row appears if the current weather data is also the high or low for the current day.
  2. High temperature for the current day.
  3. Low temperature for the current day.

The Temecula weather pages are a service of WeatherCurrents. Temecula, California is located in the Temecula Valley, in southwestern Riverside County, along the Interstate 15 highway. The Temecula Valley's rolling hills are home to the Temecula wine country, vineyards, golf courses, a casino resort, and Old Town Temecula.
Copyright ©Mon May 29 22:39:55 PDT 2017  WeatherCurrents. All rights reserved. - Submit questions and comments - Privacy Policy

This page automatically refreshes every 10 minutes.